createdAt,value
2019-02-26T00:02:10.085Z,73.53
2019-02-26T00:04:42.085Z,74.72
2019-02-26T00:07:16.233Z,75.55
2019-02-26T00:09:51.222Z,74.89
2019-02-26T00:12:23.803Z,74.85
2019-02-26T00:14:55.049Z,75.32
2019-02-26T00:17:26.711Z,75.54
2019-02-26T00:19:57.919Z,74.92
2019-02-26T00:22:29.988Z,75.40
2019-02-26T00:25:03.811Z,75.20
2019-02-26T00:27:35.308Z,74.71
2019-02-26T00:30:11.201Z,75.09
2019-02-26T00:32:42.076Z,74.85
2019-02-26T00:35:15.836Z,74.37
2019-02-26T00:37:48.929Z,74.05
2019-02-26T00:40:20.425Z,73.83
2019-02-26T00:42:54.390Z,73.35
2019-02-26T00:45:27.220Z,72.90
2019-02-26T00:47:58.002Z,73.68
2019-02-26T00:50:31.043Z,74.19
2019-02-26T00:53:03.981Z,74.60
2019-02-26T00:55:37.982Z,75.83
2019-02-26T00:58:10.776Z,75.24
2019-02-26T01:00:44.690Z,74.46
2019-02-26T01:03:15.920Z,73.84
2019-02-26T01:05:48.681Z,73.45
2019-02-26T01:08:20.010Z,74.26
2019-02-26T01:10:51.899Z,73.84
2019-02-26T01:13:25.580Z,73.49
2019-02-26T01:15:55.982Z,73.44
2019-02-26T01:18:29.002Z,73.87
2019-02-26T01:21:22.110Z,72.95
2019-02-26T01:23:52.065Z,72.69
2019-02-26T01:26:27.319Z,73.06
2019-02-26T01:28:58.596Z,73.04
2019-02-26T01:31:32.087Z,72.99
2019-02-26T01:34:03.034Z,72.94
2019-02-26T01:36:34.267Z,72.81
2019-02-26T01:39:11.286Z,73.54
2019-02-26T01:41:43.364Z,73.85
2019-02-26T01:44:15.590Z,73.73
2019-02-26T01:46:47.026Z,73.20
2019-02-26T01:49:19.213Z,71.89
2019-02-26T01:51:51.865Z,72.61
2019-02-26T01:54:23.973Z,71.80
2019-02-26T01:56:55.160Z,71.52
2019-02-26T01:59:28.492Z,72.23
2019-02-26T02:01:59.941Z,71.79
2019-02-26T02:04:32.030Z,72.02
2019-02-26T02:07:05.943Z,72.24
2019-02-26T02:09:37.010Z,71.99
2019-02-26T02:12:08.800Z,72.08
2019-02-26T02:14:42.309Z,71.87
2019-02-26T02:17:13.988Z,71.89
2019-02-26T02:19:45.542Z,72.00
2019-02-26T02:22:19.478Z,72.35
2019-02-26T02:24:53.994Z,71.16
2019-02-26T02:27:28.172Z,71.93
2019-02-26T02:29:58.926Z,71.56
2019-02-26T02:32:34.301Z,72.75
2019-02-26T02:35:06.752Z,72.53
2019-02-26T02:37:38.790Z,72.07
2019-02-26T02:40:10.365Z,72.18
2019-02-26T02:42:43.094Z,72.34
2019-02-26T02:45:19.707Z,72.49
2019-02-26T02:47:48.040Z,72.24
2019-02-26T02:50:19.974Z,71.81
2019-02-26T02:53:14.441Z,71.50
2019-02-26T02:55:47.057Z,71.42
2019-02-26T02:58:21.282Z,72.04
2019-02-26T03:00:54.405Z,71.70
2019-02-26T03:03:26.051Z,71.48
2019-02-26T03:05:58.345Z,71.42
2019-02-26T03:08:30.920Z,69.97
2019-02-26T03:11:14.389Z,70.63
2019-02-26T03:13:48.351Z,70.32
2019-02-26T03:16:21.358Z,70.30
2019-02-26T03:18:52.085Z,70.21
2019-02-26T03:21:24.742Z,70.18
2019-02-26T03:23:57.859Z,70.03
2019-02-26T03:26:29.924Z,70.62
2019-02-26T03:29:01.501Z,70.35
2019-02-26T03:31:35.053Z,70.35
2019-02-26T03:34:10.455Z,70.76
2019-02-26T03:36:40.809Z,70.15
2019-02-26T03:39:13.973Z,69.74
2019-02-26T03:41:46.043Z,69.89
2019-02-26T03:44:18.049Z,69.99
2019-02-26T03:46:49.255Z,69.97
2019-02-26T03:49:26.402Z,70.54
2019-02-26T03:51:59.086Z,69.76
2019-02-26T03:54:27.131Z,69.85
2019-02-26T03:56:59.043Z,71.99
2019-02-26T03:59:31.111Z,70.53
2019-02-26T04:02:02.571Z,69.96
2019-02-26T04:04:33.809Z,71.46
2019-02-26T04:07:09.896Z,71.76
2019-02-26T04:09:41.837Z,71.26
2019-02-26T04:12:12.986Z,70.85
2019-02-26T04:14:43.953Z,70.55
2019-02-26T04:17:15.151Z,71.60
2019-02-26T04:19:47.779Z,71.24
2019-02-26T04:22:50.092Z,70.92
2019-02-26T04:25:33.966Z,71.04
2019-02-26T04:28:15.431Z,71.00
2019-02-26T04:31:12.498Z,70.60
2019-02-26T04:34:04.420Z,70.97
2019-02-26T04:37:24.604Z,69.89
2019-02-26T04:40:17.181Z,70.55
2019-02-26T04:43:31.382Z,70.25
2019-02-26T04:46:30.992Z,70.21
2019-02-26T04:49:01.937Z,71.18
2019-02-26T04:51:34.332Z,70.87
2019-02-26T04:54:06.758Z,71.35
2019-02-26T04:56:40.140Z,71.62
2019-02-26T04:59:16.976Z,71.08
2019-02-26T05:01:52.341Z,71.36
2019-02-26T05:04:24.936Z,71.31
2019-02-26T05:06:56.175Z,71.35
2019-02-26T05:09:29.774Z,71.58
2019-02-26T05:12:00.957Z,71.17
2019-02-26T05:14:33.436Z,71.30
2019-02-26T05:17:05.163Z,71.86
2019-02-26T05:19:39.247Z,71.79
2019-02-26T05:22:09.967Z,71.52
2019-02-26T05:24:44.231Z,72.25
2019-02-26T05:27:18.661Z,73.14
2019-02-26T05:29:51.977Z,73.11
2019-02-26T05:32:25.133Z,72.70
2019-02-26T05:34:55.007Z,72.06
2019-02-26T05:37:29.270Z,71.81
2019-02-26T05:39:59.965Z,71.45
2019-02-26T05:42:31.230Z,71.37
2019-02-26T05:45:05.857Z,71.81
2019-02-26T05:47:35.987Z,72.24
2019-02-26T05:50:12.987Z,72.10
2019-02-26T05:52:40.180Z,72.05
2019-02-26T05:55:13.971Z,72.05
2019-02-26T05:57:44.940Z,72.47
2019-02-26T06:00:20.667Z,72.62
2019-02-26T06:02:51.092Z,72.43
2019-02-26T06:05:26.162Z,72.02
2019-02-26T06:07:58.053Z,72.16
2019-02-26T06:10:32.522Z,71.96
2019-02-26T06:13:05.004Z,71.99
2019-02-26T06:15:35.972Z,72.76
2019-02-26T06:18:07.153Z,73.24
2019-02-26T06:20:38.944Z,72.89
2019-02-26T06:23:10.273Z,73.73
2019-02-26T06:25:41.916Z,73.31
2019-02-26T06:28:15.408Z,72.40
2019-02-26T06:30:46.001Z,72.59
2019-02-26T06:33:18.975Z,72.17
2019-02-26T06:35:50.173Z,71.83
2019-02-26T06:38:23.452Z,72.71
2019-02-26T06:40:54.939Z,71.72
2019-02-26T06:43:26.475Z,71.55
2019-02-26T06:46:00.064Z,72.57
2019-02-26T06:48:32.588Z,72.46
2019-02-26T06:51:04.645Z,72.15
2019-02-26T06:53:36.961Z,71.26
2019-02-26T06:56:08.174Z,70.24
2019-02-26T06:58:42.762Z,69.31
2019-02-26T07:01:14.846Z,69.24
2019-02-26T07:03:46.862Z,68.83
2019-02-26T07:06:20.853Z,68.64
2019-02-26T07:08:52.953Z,69.09
2019-02-26T07:11:26.210Z,69.24
2019-02-26T07:13:58.857Z,69.05
2019-02-26T07:16:30.442Z,68.14
2019-02-26T07:19:03.911Z,67.39
2019-02-26T07:21:38.029Z,67.12
2019-02-26T07:24:10.040Z,66.70
2019-02-26T07:26:44.132Z,66.14
2019-02-26T07:29:17.651Z,65.83
2019-02-26T07:31:49.948Z,63.43
2019-02-26T07:34:22.794Z,61.87
2019-02-26T07:36:54.997Z,61.67
2019-02-26T07:39:26.276Z,62.11
2019-02-26T07:41:59.907Z,62.07
2019-02-26T07:44:31.108Z,61.61
2019-02-26T07:47:03.687Z,61.30
2019-02-26T07:49:36.034Z,61.68
2019-02-26T07:52:09.594Z,60.73
2019-02-26T07:54:42.759Z,60.00
2019-02-26T07:57:15.727Z,60.61
2019-02-26T07:59:50.090Z,60.20
2019-02-26T08:02:20.964Z,60.66
2019-02-26T08:04:52.177Z,60.60
2019-02-26T08:07:26.238Z,60.66
2019-02-26T08:09:58.110Z,60.77
2019-02-26T08:12:32.385Z,58.94
2019-02-26T08:15:04.942Z,59.06
2019-02-26T08:17:35.980Z,60.27
2019-02-26T08:20:10.023Z,59.92
2019-02-26T08:22:40.931Z,58.73
2019-02-26T08:25:13.673Z,57.85
2019-02-26T08:27:44.918Z,57.77
2019-02-26T08:30:20.978Z,57.12
2019-02-26T08:32:53.628Z,56.79
2019-02-26T08:35:24.779Z,55.43
2019-02-26T08:37:55.945Z,54.51
2019-02-26T08:40:27.330Z,54.57
2019-02-26T08:43:00.584Z,52.95
2019-02-26T08:45:32.023Z,50.59
2019-02-26T08:48:03.792Z,43.45
2019-02-26T08:50:38.520Z,46.33
2019-02-26T08:53:09.829Z,43.38
2019-02-26T08:55:41.029Z,42.89
2019-02-26T08:58:12.558Z,42.45
2019-02-26T09:00:44.101Z,42.93
2019-02-26T09:03:16.036Z,40.31
2019-02-26T09:05:49.425Z,42.15
2019-02-26T09:08:21.143Z,42.43
2019-02-26T09:10:53.019Z,37.88
2019-02-26T09:13:25.570Z,38.35
2019-02-26T09:16:00.072Z,36.74
2019-02-26T09:18:32.510Z,35.61
2019-02-26T09:21:06.980Z,35.00
2019-02-26T09:23:38.043Z,37.50
2019-02-26T09:26:10.013Z,35.97
2019-02-26T09:28:41.902Z,36.27
2019-02-26T09:31:14.213Z,35.93
2019-02-26T09:33:46.012Z,36.82
2019-02-26T09:36:20.501Z,36.63
2019-02-26T09:38:51.415Z,33.20
2019-02-26T09:41:23.832Z,33.21
2019-02-26T09:43:55.181Z,30.16
2019-02-26T09:46:27.951Z,30.57
2019-02-26T09:49:00.899Z,32.67
2019-02-26T09:51:33.003Z,30.67
2019-02-26T09:54:06.065Z,30.66
2019-02-26T09:56:37.990Z,28.20
2019-02-26T09:59:10.260Z,29.55
2019-02-26T10:01:44.615Z,31.21
2019-02-26T10:04:17.311Z,29.03
2019-02-26T10:06:48.961Z,27.00
2019-02-26T10:09:20.737Z,29.42
2019-02-26T10:11:51.988Z,26.84
2019-02-26T10:14:23.239Z,24.48
2019-02-26T10:16:56.879Z,27.49
2019-02-26T10:19:28.269Z,28.95
2019-02-26T10:22:00.820Z,30.00
2019-02-26T10:24:35.336Z,30.13
2019-02-26T10:27:08.398Z,30.51
2019-02-26T10:29:41.956Z,31.96
2019-02-26T10:32:13.257Z,31.52
2019-02-26T10:34:45.992Z,32.52
2019-02-26T10:37:18.735Z,33.29
2019-02-26T10:39:52.036Z,31.43
2019-02-26T10:42:24.188Z,30.33
2019-02-26T10:44:55.930Z,31.10
2019-02-26T10:47:29.909Z,29.94
2019-02-26T10:50:01.078Z,29.88
2019-02-26T10:52:33.294Z,29.34
2019-02-26T10:55:05.081Z,29.11
2019-02-26T10:57:38.754Z,30.66
2019-02-26T11:00:18.657Z,31.47
2019-02-26T11:02:53.423Z,29.84
2019-02-26T11:05:26.316Z,30.87
2019-02-26T11:07:59.790Z,30.17
2019-02-26T11:10:33.659Z,29.08
2019-02-26T11:13:05.081Z,30.73
2019-02-26T11:15:37.064Z,30.06
2019-02-26T11:18:14.514Z,31.04
2019-02-26T11:20:49.716Z,30.22
2019-02-26T11:23:30.284Z,31.31
2019-02-26T11:25:55.780Z,32.32
2019-02-26T11:28:29.717Z,31.56
2019-02-26T11:31:00.046Z,32.44
2019-02-26T11:33:31.440Z,32.03
2019-02-26T11:36:04.979Z,32.84
2019-02-26T11:38:39.094Z,33.80
2019-02-26T11:41:09.999Z,35.28
2019-02-26T11:43:41.255Z,35.39
2019-02-26T11:46:13.513Z,37.18
2019-02-26T11:48:45.705Z,37.54
2019-02-26T11:51:20.068Z,38.67
2019-02-26T11:53:52.520Z,39.36
2019-02-26T11:56:25.716Z,40.16
2019-02-26T11:58:58.772Z,40.46
2019-02-26T12:01:32.233Z,41.35
2019-02-26T12:04:04.152Z,41.97
2019-02-26T12:06:36.077Z,41.65
2019-02-26T12:09:10.835Z,42.24
2019-02-26T12:11:42.044Z,42.53
2019-02-26T12:14:19.409Z,43.82
2019-02-26T12:16:50.194Z,46.05
2019-02-26T12:19:23.112Z,46.56
2019-02-26T12:21:57.277Z,46.17
2019-02-26T12:24:28.995Z,47.05
2019-02-26T12:27:01.105Z,47.01
2019-02-26T12:29:33.094Z,46.86
2019-02-26T12:32:05.151Z,46.87
2019-02-26T12:34:38.588Z,47.65
2019-02-26T12:37:11.701Z,47.78
2019-02-26T12:39:43.716Z,48.55
2019-02-26T12:42:18.479Z,48.78
2019-02-26T12:44:48.951Z,48.75
2019-02-26T12:47:21.785Z,49.10
2019-02-26T12:49:55.646Z,49.83
2019-02-26T12:52:30.161Z,50.79
2019-02-26T12:55:00.806Z,50.84
2019-02-26T12:57:32.976Z,50.25
2019-02-26T13:00:06.884Z,50.19
2019-02-26T13:02:39.990Z,50.08
2019-02-26T13:05:35.225Z,50.81
2019-02-26T13:08:09.788Z,49.87
2019-02-26T13:10:42.553Z,48.58
2019-02-26T13:13:16.012Z,48.69
2019-02-26T13:15:48.639Z,48.32
2019-02-26T13:18:20.014Z,48.03
2019-02-26T13:20:56.830Z,48.57
2019-02-26T13:23:24.209Z,48.35
2019-02-26T13:25:56.418Z,48.87
2019-02-26T13:28:29.717Z,49.84
2019-02-26T13:31:02.351Z,49.04
2019-02-26T13:33:37.648Z,48.72
2019-02-26T13:36:09.619Z,49.78
2019-02-26T13:38:45.010Z,49.41
2019-02-26T13:41:38.314Z,49.10
2019-02-26T13:43:49.079Z,49.33
2019-02-26T13:46:22.631Z,49.26
2019-02-26T13:48:55.515Z,49.47
2019-02-26T13:51:27.905Z,49.19
2019-02-26T13:53:59.093Z,49.07
2019-02-26T13:56:31.681Z,49.45
2019-02-26T13:59:02.998Z,50.12
2019-02-26T14:01:34.272Z,49.49
2019-02-26T14:04:05.935Z,49.61
2019-02-26T14:06:37.145Z,49.82
2019-02-26T14:09:09.918Z,50.78
2019-02-26T14:11:42.764Z,50.23
2019-02-26T14:14:14.891Z,49.23
2019-02-26T14:16:47.917Z,48.30
2019-02-26T14:19:19.111Z,47.79
2019-02-26T14:21:50.853Z,47.46
2019-02-26T14:24:22.076Z,47.79
2019-02-26T14:26:54.894Z,47.64
2019-02-26T14:29:26.111Z,48.04
2019-02-26T14:31:58.032Z,48.05
2019-02-26T14:34:30.180Z,48.66
2019-02-26T14:37:01.966Z,47.91
2019-02-26T14:39:33.168Z,48.20
2019-02-26T14:42:05.092Z,48.41
2019-02-26T14:44:38.634Z,49.07
2019-02-26T14:47:09.930Z,49.17
2019-02-26T14:49:41.131Z,49.21
2019-02-26T14:52:12.570Z,50.21
2019-02-26T14:54:45.763Z,50.03
2019-02-26T14:57:17.037Z,49.62
2019-02-26T14:59:48.952Z,49.37
2019-02-26T15:02:20.832Z,50.11
2019-02-26T15:04:52.841Z,50.44
2019-02-26T15:07:26.581Z,51.01
2019-02-26T15:09:57.956Z,50.47
2019-02-26T15:12:29.525Z,50.71
2019-02-26T15:15:01.057Z,50.52
2019-02-26T15:17:33.063Z,51.00
2019-02-26T15:20:06.324Z,52.17
2019-02-26T15:22:38.170Z,52.68
2019-02-26T15:25:13.123Z,52.97
2019-02-26T15:27:44.974Z,53.52
2019-02-26T15:30:16.689Z,54.09
2019-02-26T15:32:48.117Z,54.56
2019-02-26T15:35:20.094Z,55.02
2019-02-26T15:37:52.046Z,54.46
2019-02-26T15:40:25.842Z,54.94
2019-02-26T15:42:57.205Z,55.35
2019-02-26T15:45:29.553Z,55.77
2019-02-26T15:48:03.973Z,55.84
2019-02-26T15:50:37.701Z,56.10
2019-02-26T15:53:09.593Z,56.65
2019-02-26T15:55:40.932Z,56.45
2019-02-26T15:58:12.145Z,56.81
2019-02-26T16:00:43.813Z,57.00
2019-02-26T16:03:15.046Z,57.29
2019-02-26T16:05:47.059Z,58.21
2019-02-26T16:08:19.338Z,58.60
2019-02-26T16:10:51.052Z,58.58
2019-02-26T16:13:23.079Z,59.07
2019-02-26T16:15:55.082Z,58.97
2019-02-26T16:18:27.620Z,59.37
2019-02-26T16:21:00.185Z,58.92
2019-02-26T16:23:31.522Z,59.22
2019-02-26T16:26:05.643Z,58.87
2019-02-26T16:28:38.372Z,57.81
2019-02-26T16:31:10.181Z,57.02
2019-02-26T16:33:42.154Z,56.72
2019-02-26T16:36:14.016Z,55.79
2019-02-26T16:38:50.738Z,52.16
2019-02-26T16:41:19.089Z,53.02
2019-02-26T16:43:51.927Z,52.96
2019-02-26T16:46:24.048Z,51.08
2019-02-26T16:48:55.238Z,49.15
2019-02-26T16:51:27.120Z,48.66
2019-02-26T16:53:59.030Z,48.61
2019-02-26T16:56:30.223Z,48.54
2019-02-26T16:59:02.137Z,48.82
2019-02-26T17:01:34.955Z,50.27
2019-02-26T17:04:07.614Z,52.83
2019-02-26T17:06:39.687Z,54.48
2019-02-26T17:09:13.315Z,54.73
2019-02-26T17:11:47.110Z,55.23
2019-02-26T17:14:18.198Z,55.94
2019-02-26T17:16:50.267Z,56.72
2019-02-26T17:19:22.236Z,56.21
2019-02-26T17:21:54.133Z,56.93
2019-02-26T17:24:26.378Z,57.45
2019-02-26T17:26:58.092Z,57.75
2019-02-26T17:29:29.962Z,58.22
2019-02-26T17:32:04.048Z,58.51
2019-02-26T17:34:35.824Z,58.04
2019-02-26T17:37:08.506Z,58.59
2019-02-26T17:39:40.206Z,60.11
2019-02-26T17:42:12.210Z,60.59
2019-02-26T17:44:44.082Z,61.48
2019-02-26T17:47:16.110Z,61.73
2019-02-26T17:49:48.210Z,61.44
2019-02-26T17:52:19.522Z,61.57
2019-02-26T17:54:52.056Z,62.83
2019-02-26T17:57:24.520Z,62.77
2019-02-26T17:59:56.951Z,62.60
2019-02-26T18:02:28.432Z,62.20
2019-02-26T18:05:00.760Z,63.00
2019-02-26T18:07:33.700Z,62.36
2019-02-26T18:10:06.164Z,62.11
2019-02-26T18:12:39.946Z,61.85
2019-02-26T18:15:11.948Z,62.18
2019-02-26T18:17:43.262Z,62.48
2019-02-26T18:23:27.929Z,62.23
2019-02-26T18:26:00.712Z,61.59
2019-02-26T18:28:31.940Z,61.97
2019-02-26T18:31:03.279Z,61.74
2019-02-26T18:33:36.169Z,61.77
2019-02-26T18:36:08.518Z,62.34
2019-02-26T18:38:40.888Z,61.75
2019-02-26T18:41:13.069Z,62.06
2019-02-26T18:43:47.510Z,61.97
2019-02-26T18:46:18.133Z,62.37
2019-02-26T18:48:50.131Z,62.06
2019-02-26T18:51:23.782Z,63.43
2019-02-26T18:53:54.978Z,63.16
2019-02-26T18:56:26.282Z,63.05
2019-02-26T19:02:22.450Z,62.65
2019-02-26T19:04:55.848Z,64.09
2019-02-26T19:07:28.037Z,64.29
2019-02-26T19:10:00.876Z,64.13
2019-02-26T19:12:33.669Z,63.72
2019-02-26T19:15:06.303Z,64.95
2019-02-26T19:17:40.184Z,64.11
2019-02-26T19:20:14.954Z,65.24
2019-02-26T19:22:47.126Z,64.49
2019-02-26T19:25:19.827Z,63.95
2019-02-26T19:27:53.086Z,64.20
2019-02-26T19:30:23.999Z,64.07
2019-02-26T19:32:55.856Z,63.67
2019-02-26T19:35:27.097Z,63.62
2019-02-26T19:37:58.918Z,63.64
2019-02-26T19:40:38.649Z,63.51
2019-02-26T19:43:09.276Z,64.19
2019-02-26T19:45:43.626Z,64.87
2019-02-26T19:48:14.025Z,65.34
2019-02-26T19:50:47.945Z,64.84
2019-02-26T19:53:20.755Z,64.12
2019-02-26T19:55:53.129Z,63.51
2019-02-26T19:58:24.813Z,63.52
2019-02-26T20:00:56.436Z,62.58
2019-02-26T20:03:39.295Z,61.03
2019-02-26T20:06:06.892Z,59.89
2019-02-26T20:08:47.273Z,59.56
2019-02-26T20:11:22.369Z,59.33
2019-02-26T20:13:52.071Z,57.34
2019-02-26T20:16:27.581Z,56.94
2019-02-26T20:18:59.072Z,56.68
2019-02-26T20:21:31.022Z,55.56
2019-02-26T20:24:16.456Z,55.27
2019-02-26T20:26:47.623Z,53.51
2019-02-26T20:29:21.061Z,54.27
2019-02-26T20:31:55.612Z,54.87
2019-02-26T20:34:25.916Z,54.03
2019-02-26T20:36:57.117Z,55.06
2019-02-26T20:39:28.765Z,54.62
2019-02-26T20:41:59.968Z,54.07
2019-02-26T20:44:32.816Z,53.60
2019-02-26T20:47:04.019Z,53.09
2019-02-26T20:49:35.253Z,53.66
2019-02-26T20:52:06.822Z,53.33
2019-02-26T20:54:38.063Z,53.93
2019-02-26T20:57:10.211Z,53.91
2019-02-26T20:59:42.026Z,52.48
2019-02-26T21:02:13.676Z,51.44
2019-02-26T21:04:45.253Z,51.82
2019-02-26T21:07:17.080Z,51.43
2019-02-26T21:09:48.373Z,51.56
2019-02-26T21:12:21.155Z,51.26
2019-02-26T21:14:53.071Z,51.58
2019-02-26T21:17:25.850Z,51.77
2019-02-26T21:19:58.144Z,51.66
2019-02-26T21:22:29.832Z,51.75
2019-02-26T21:25:01.185Z,51.69
2019-02-26T21:27:33.231Z,51.34
2019-02-26T21:30:05.499Z,51.68
2019-02-26T21:32:37.020Z,51.14
2019-02-26T21:35:08.526Z,51.25
2019-02-26T21:37:39.973Z,51.43
2019-02-26T21:40:15.883Z,51.07
2019-02-26T21:42:44.967Z,51.19
2019-02-26T21:48:53.335Z,50.95
2019-02-26T21:51:25.005Z,51.02
2019-02-26T21:53:58.807Z,50.31
2019-02-26T21:56:30.138Z,49.89
2019-02-26T21:59:02.192Z,50.33
2019-02-26T22:01:33.932Z,49.71
2019-02-26T22:04:05.284Z,50.90
2019-02-26T22:06:37.086Z,51.08
2019-02-26T22:09:09.103Z,51.14
2019-02-26T22:11:42.573Z,51.53
2019-02-26T22:14:17.828Z,50.71
2019-02-26T22:16:51.404Z,51.00
2019-02-26T22:19:22.393Z,51.60
2019-02-26T22:21:54.326Z,51.67
2019-02-26T22:24:25.744Z,50.71
2019-02-26T22:26:59.381Z,51.05
2019-02-26T22:29:30.815Z,50.83
2019-02-26T22:32:02.540Z,51.15
2019-02-26T22:34:34.127Z,51.33
2019-02-26T22:37:07.409Z,51.08
2019-02-26T22:39:40.702Z,51.54
2019-02-26T22:42:12.010Z,51.52
2019-02-26T22:44:43.647Z,51.61
2019-02-26T22:47:15.021Z,51.59
2019-02-26T22:49:46.298Z,51.26
2019-02-26T22:52:18.053Z,51.16
2019-02-26T22:54:49.783Z,52.04
2019-02-26T22:57:21.316Z,52.28
2019-02-26T22:59:53.440Z,51.92
2019-02-26T23:02:28.077Z,52.41
2019-02-26T23:05:01.849Z,52.29
2019-02-26T23:07:33.277Z,53.34
2019-02-26T23:10:05.506Z,53.93
2019-02-26T23:12:39.932Z,54.81
2019-02-26T23:15:12.643Z,56.21
2019-02-26T23:17:46.331Z,54.71
2019-02-26T23:20:18.178Z,54.92
2019-02-26T23:22:50.318Z,55.16
2019-02-26T23:25:22.115Z,54.35
2019-02-26T23:27:54.002Z,55.23
2019-02-26T23:30:27.200Z,54.21
2019-02-26T23:32:59.537Z,55.01
2019-02-26T23:35:31.375Z,55.47
2019-02-26T23:38:02.972Z,56.10
2019-02-26T23:40:34.794Z,57.03
2019-02-26T23:43:06.486Z,57.65
2019-02-26T23:45:38.025Z,57.55
2019-02-26T23:48:09.224Z,57.60
2019-02-26T23:50:40.892Z,58.39
2019-02-26T23:53:12.115Z,58.58
2019-02-26T23:55:47.235Z,60.17
2019-02-26T23:58:17.133Z,61.73
